SBOSBO NAS / MYNN
Speedbird OnlineSpeedbird Online NAS / MYNN

Lynden Pindling International Airport
18:23 30°C

Location Nassau, Bahamas
Latitude: 25.0389995575
Longitude: -77.46620178219999
Local Time 18:23 on 20 May 2024
UTC -4 hours (America/Nassau)
Currency £1 equals 0.00
METAR MYNN 202200Z 29005KT 9999 SCT020 BKN200 30/24 A2986
TAF MYNN 201735Z 2018/2118 24010KT 9999 FEW018CB SCT020 BKN120 FM210600 25005KT 9999 VCTS FEW018CB BKN020
Weather As Of 20 May 2024 18:23
Description Broken clouds
Wind 9 km/h from West (290°)
Cloud Cover 75%
Precipitation Rain: none, Snow: none
Sunrise 06:23
Sunset 19:49
NOTAM 5 active NOTAM
Rotations During the last 90 days there were
67 flights from LHR
60 flights from GCM
22 flights from PLS
1 flights from NAS
82 flights to LHR
53 flights to GCM
23 flights to PLS
1 flights to NAS
Lounges The Lignum Club , Main Terminal
Web Airport Website | Wikipedia
Codes IATA: NAS
ICAO: MYNN
Altitude 5 Meter / 16 Feet
Distance 7,017 KM / 4,360 Miles
from London.
Runways
RunwayLength (m)Surface
102522Asphalt
143460Asphalt
282522Asphalt
323460Asphalt
Radio
TypeDescriptionFrequency
APPAPP121
ATISATIS118.7
CLDCLNC DEL118.3
CTAFCTAF122.95
GNDGND121.7
RDORDO128
TWRTWR119.5
UNICUNICOM123
Live ATC



Support Speedbird Online

© 2017-2024 Speedbird Online